• Join FlightAware (Why Join?)
  • Login
  • US Flag 
04:08PM EDT


 

Airport Tracker/Info


-or-


 

Live Flight TrackerFlight Track Log ✈ DAL6034 ✈ 28-Apr-2013 ✈ KLGA - KMHT

Flight Track Log - Related Links

Times and Time Zones

All times are in EDT time to prevent confusion due to time zone crossing. See the DAL6034 flight status page for this flight to view local times or setup timezone preferences in your user account.

Time Position Orientation Groundspeed Altitude Reporting Facility
EDT Latitude Longitude Course Direction KTS MPH feet Rate Location/Type
03:38PM 40.7500 -73.8500 27° Northeast 164 189 1,300  Level New York TRACON
03:40PM 40.7928 -73.6928 70° East 187 215 7,300 2,340 Climbing Boston Center
03:41PM 41.1069 -73.6022 28° Northeast  Level FlightAware Approximate
03:41PM 40.8561 -73.6392 33° Northeast 214 246 9,600  Level Boston Center
03:42PM 41.1910 -73.5329 33° Northeast  Level FlightAware Approximate
03:42PM 40.9233 -73.5772 35° Northeast 256 295 11,600  Level Boston Center
03:43PM 41.2742 -73.4616 27° Northeast  Level FlightAware Approximate
03:43PM 41.0114 -73.5239 25° Northeast 292 336 13,000  Level Boston Center
03:44PM 41.1033 -73.4842 18° North 341 392 14,300 1,380 Climbing Boston Center
03:45PM 41.1997 -73.4414 18° North 359 413 15,800 1,200 Climbing Boston Center
03:46PM 41.2939 -73.3986 19° North 365 420 16,800 540 Climbing Boston Center
03:47PM 41.3922 -73.3558 18° North 370 426 16,900  Climbing Boston Center
03:48PM 41.4864 -73.3047 22° Northeast 381 438 16,900  Level Boston Center
03:49PM 41.5725 -73.1947 44° Northeast 386 444 17,000  Climbing Boston Center
03:50PM 41.6461 -73.1039 43° Northeast 391 450 17,000  Level Boston Center
03:51PM 41.7528 -73.0272 28° Northeast 391 450 17,000  Level Boston Center
03:52PM 41.8469 -72.9611 28° Northeast 385 443 17,000  Level Boston Center
03:53PM 41.9431 -72.8950 27° Northeast 380 437 17,000  Level Boston Center
03:54PM 42.0308 -72.8314 28° Northeast 380 437 17,000  Level Boston Center
03:55PM 42.1372 -72.7592 27° Northeast 387 445 17,000  Level Boston Center
03:56PM 42.2314 -72.6925 28° Northeast 387 445 17,000  Level Boston Center
03:57PM 42.3272 -72.6253 27° Northeast 387 445 17,000 -60 Level Boston Center
03:58PM 42.4150 -72.5611 28° Northeast 387 445 16,900 -660 Descending Boston Center
03:59PM 42.4900 -72.4653 43° Northeast 381 438 15,700 -1,320 Descending Boston Center
04:00PM 42.5589 -72.3556 50° Northeast 374 430 14,300 -1,500 Descending Boston Center
04:01PM 42.6211 -72.2511 51° Northeast 363 418 12,700 -1,620 Descending Boston Center
04:02PM 42.6897 -72.1378 51° Northeast 353 406 11,100 -1,320 Descending Boston Center
04:03PM 42.7436 -72.0500 50° Northeast 348 400 10,100 -1,140 Descending Boston Center
04:04PM 42.7994 -71.9592 50° Northeast 299 344 8,900 -1,320 Descending Boston Center
04:05PM 42.8367 -71.8853 55° Northeast 269 310 7,500 -1,560 Descending Boston Center
04:06PM 42.8800 -71.7883 59° Northeast 264 304 5,800 -1,500 Descending Boston Center
04:07PM 42.9150 -71.7144 57° Northeast 259 298 4,500 -900 Descending Boston Center
04:08PM 42.9561 -71.6286 57° Northeast 254 292 4,000 -720 Descending Boston Center
04:09PM 42.9847 -71.5689 57° Northeast 228 262 3,100 -900 Descending Boston Center